Beijing Capital International Airport
ZBAA : now visible

Airfield :











YOU CAN JOIN US ON...

 
LOGIN :

Register | Disclaimer

   EN    FR    IT 

 









Legend :    VFR   Marginal VFR   IFR   Intensive IFR   Very Intensive IFR
Visi :
Ceiling :
>= 8 km
>= 3000ft
5 to 8 km
1000 to 3000 ft
1500m to 5 km
500 to 1000 ft
800 to 1500m
200 to 500 ft
< 800m
< 200 ft
Symbols :   Thunderstorms  Fog  Heavy snow  Heavy precipitations  Wind > 20 kt






- Airport Elevation : 116 ft
- IATA code : PEK


ZBAA - Beijing Capital International

CURRENT METAR :
  • 190700Z 20005MPS 170V290 CAVOK 06/M16 Q1019 NOSIG

EXPIRED METARs :
  • 190630Z 22004MPS 190V250 CAVOK 06/M16 Q1019 NOSIG
  • 190600Z VRB04MPS CAVOK 06/M16 Q1019 BECMG TL0740 23005MPS
  • 190530Z 21004MPS 150V260 CAVOK 05/M16 Q1020 NOSIG
  • 190500Z 22005G10MPS 180V270 CAVOK 05/M17 Q1020 NOSIG
  • 190430Z 25004G10MPS 230V350 CAVOK 05/M17 Q1021 NOSIG

TAF AMD TAF ZBAA
Valid from the 19 at 06:00 until the 20 at 06:00 UTC


190510Z 1906/2006 22005G10MPS CAVOK TX06/1907Z TNM08/1921Z
BECMG 1914/1915 30004MPS



MET'MAP, your aeronautical weather chart ! - Copyright ORBIFLY December 2007 - Disclaimer

ORBIFLY MET'MAP TEAM :

Programming & Development : Alexandra Zaïnal
Concept & original design : Baudouin d'Aumeries
Assistance for programming : Marc-Olivier Méhu
Technical & hardware support : Manuel Goepfert

Contact : metmap@orbifly.com




SOURCES & CREDITS :

   NOAA       Earth
Advisory